sensor_id;sensor_type;location;lat;lon;timestamp;P1;P2;P0
65360;PMS5003;51958;55.018;73.536;2023-03-01T15:04:56;33.00;27.00;17.00
65360;PMS5003;51958;55.018;73.536;2023-03-01T15:08:02;34.00;28.00;16.00
65360;PMS5003;51958;55.018;73.536;2023-03-01T15:14:42;25.67;22.67;15.00
65360;PMS5003;51958;55.018;73.536;2023-03-01T15:17:53;21.00;19.33;12.00
65360;PMS5003;51958;55.018;73.536;2023-03-01T15:21:07;19.00;16.33;9.00
65360;PMS5003;51958;55.018;73.536;2023-03-01T15:24:17;14.00;14.00;6.00
65360;PMS5003;51958;55.018;73.536;2023-03-01T15:27:49;14.67;13.67;5.00
65360;PMS5003;51958;55.018;73.536;2023-03-01T15:31:02;16.00;13.00;5.00
65360;PMS5003;51958;55.018;73.536;2023-03-01T15:37:38;13.00;10.00;3.00
65360;PMS5003;51958;55.018;73.536;2023-03-01T15:40:48;15.33;12.33;6.00
65360;PMS5003;51958;55.018;73.536;2023-03-01T15:47:29;14.00;13.00;4.00
65360;PMS5003;51958;55.018;73.536;2023-03-01T15:50:35;16.00;14.00;6.00
65360;PMS5003;51958;55.018;73.536;2023-03-01T15:53:51;15.00;12.00;5.00
65360;PMS5003;51958;55.018;73.536;2023-03-01T15:56:54;16.00;13.00;6.00
65360;PMS5003;51958;55.018;73.536;2023-03-01T15:59:59;14.00;13.00;6.00
65360;PMS5003;51958;55.018;73.536;2023-03-01T16:03:07;14.50;14.00;6.00
65360;PMS5003;51958;55.018;73.536;2023-03-01T16:06:20;15.00;13.50;4.50
65360;PMS5003;51958;55.018;73.536;2023-03-01T16:09:23;16.00;13.00;6.00
65360;PMS5003;51958;55.018;73.536;2023-03-01T16:12:33;13.00;11.00;4.00
65360;PMS5003;51958;55.018;73.536;2023-03-01T16:15:35;15.00;12.00;5.00
65360;PMS5003;51958;55.018;73.536;2023-03-01T16:18:49;15.50;11.00;6.00
65360;PMS5003;51958;55.018;73.536;2023-03-01T16:21:54;16.00;12.00;6.00
65360;PMS5003;51958;55.018;73.536;2023-03-01T16:25:07;16.00;13.00;4.00
65360;PMS5003;51958;55.018;73.536;2023-03-01T16:28:22;14.00;12.00;5.00
65360;PMS5003;51958;55.018;73.536;2023-03-01T16:31:24;13.00;12.00;5.00
65360;PMS5003;51958;55.018;73.536;2023-03-01T16:34:33;17.00;14.00;6.00
65360;PMS5003;51958;55.018;73.536;2023-03-01T16:37:38;19.00;16.00;6.00
65360;PMS5003;51958;55.018;73.536;2023-03-01T16:40:39;19.00;17.00;8.00
65360;PMS5003;51958;55.018;73.536;2023-03-01T16:43:47;17.00;15.00;5.00
65360;PMS5003;51958;55.018;73.536;2023-03-01T16:46:59;17.00;15.00;6.00
65360;PMS5003;51958;55.018;73.536;2023-03-01T16:50:01;17.00;16.00;6.00
65360;PMS5003;51958;55.018;73.536;2023-03-01T16:53:09;15.00;15.00;6.00
65360;PMS5003;51958;55.018;73.536;2023-03-01T16:56:11;16.00;15.00;6.00
65360;PMS5003;51958;55.018;73.536;2023-03-01T16:59:12;15.00;14.00;6.00
65360;PMS5003;51958;55.018;73.536;2023-03-01T17:02:13;16.00;14.50;6.00
65360;PMS5003;51958;55.018;73.536;2023-03-01T17:05:19;17.00;15.00;6.00
65360;PMS5003;51958;55.018;73.536;2023-03-01T17:08:23;16.00;13.00;5.00
65360;PMS5003;51958;55.018;73.536;2023-03-01T17:11:33;16.00;13.00;6.00
65360;PMS5003;51958;55.018;73.536;2023-03-01T17:14:36;15.00;13.00;5.00
65360;PMS5003;51958;55.018;73.536;2023-03-01T17:17:39;14.00;13.50;5.00
65360;PMS5003;51958;55.018;73.536;2023-03-01T17:20:41;11.50;11.00;5.00
65360;PMS5003;51958;55.018;73.536;2023-03-01T17:23:43;16.50;13.00;6.00
65360;PMS5003;51958;55.018;73.536;2023-03-01T17:26:45;16.00;13.00;4.50
65360;PMS5003;51958;55.018;73.536;2023-03-01T17:29:56;16.00;14.00;8.00
65360;PMS5003;51958;55.018;73.536;2023-03-01T17:33:07;16.00;14.00;7.00
65360;PMS5003;51958;55.018;73.536;2023-03-01T17:36:08;15.00;13.00;6.00
65360;PMS5003;51958;55.018;73.536;2023-03-01T17:39:10;16.00;15.00;6.00
65360;PMS5003;51958;55.018;73.536;2023-03-01T17:42:12;16.00;16.00;6.00
65360;PMS5003;51958;55.018;73.536;2023-03-01T17:45:14;16.00;15.00;6.00
65360;PMS5003;51958;55.018;73.536;2023-03-01T17:48:18;15.00;12.50;5.50
65360;PMS5003;51958;55.018;73.536;2023-03-01T17:51:25;15.00;13.00;5.00
65360;PMS5003;51958;55.018;73.536;2023-03-01T17:54:26;16.00;14.00;6.00
65360;PMS5003;51958;55.018;73.536;2023-03-01T17:57:39;14.00;13.00;4.00
65360;PMS5003;51958;55.018;73.536;2023-03-01T18:00:41;15.00;13.00;6.00
65360;PMS5003;51958;55.018;73.536;2023-03-01T18:03:42;14.00;13.00;5.00
65360;PMS5003;51958;55.018;73.536;2023-03-01T18:06:44;13.50;13.00;6.00
65360;PMS5003;51958;55.018;73.536;2023-03-01T18:09:45;14.00;13.00;6.00
65360;PMS5003;51958;55.018;73.536;2023-03-01T18:12:57;14.00;13.00;5.00
65360;PMS5003;51958;55.018;73.536;2023-03-01T18:15:59;15.00;12.00;5.00
65360;PMS5003;51958;55.018;73.536;2023-03-01T18:19:03;15.00;13.00;6.00
65360;PMS5003;51958;55.018;73.536;2023-03-01T18:22:06;14.50;13.00;6.00
65360;PMS5003;51958;55.018;73.536;2023-03-01T18:25:08;14.00;11.00;4.00
65360;PMS5003;51958;55.018;73.536;2023-03-01T18:28:15;16.00;11.00;4.00
65360;PMS5003;51958;55.018;73.536;2023-03-01T18:31:18;13.00;10.00;4.00
65360;PMS5003;51958;55.018;73.536;2023-03-01T18:34:26;11.00;7.00;3.00
65360;PMS5003;51958;55.018;73.536;2023-03-01T18:37:28;13.00;8.50;4.00
65360;PMS5003;51958;55.018;73.536;2023-03-01T18:40:34;14.00;9.00;5.00
65360;PMS5003;51958;55.018;73.536;2023-03-01T18:43:47;11.00;8.00;3.00
65360;PMS5003;51958;55.018;73.536;2023-03-01T18:46:48;13.00;9.00;5.00
65360;PMS5003;51958;55.018;73.536;2023-03-01T18:49:50;11.00;10.00;4.00
65360;PMS5003;51958;55.018;73.536;2023-03-01T18:52:53;13.50;10.50;6.00
65360;PMS5003;51958;55.018;73.536;2023-03-01T18:55:58;13.00;10.00;6.00
65360;PMS5003;51958;55.018;73.536;2023-03-01T18:58:59;11.00;8.00;3.00
65360;PMS5003;51958;55.018;73.536;2023-03-01T19:02:00;12.00;7.00;3.00
65360;PMS5003;51958;55.018;73.536;2023-03-01T19:05:01;11.00;7.00;4.00
65360;PMS5003;51958;55.018;73.536;2023-03-01T19:08:03;7.00;7.00;3.50
65360;PMS5003;51958;55.018;73.536;2023-03-01T19:11:04;8.00;7.00;3.00
65360;PMS5003;51958;55.018;73.536;2023-03-01T19:14:16;7.00;6.00;2.00
65360;PMS5003;51958;55.018;73.536;2023-03-01T19:17:17;6.50;5.00;3.00
65360;PMS5003;51958;55.018;73.536;2023-03-01T19:20:19;6.00;5.50;3.00
65360;PMS5003;51958;55.018;73.536;2023-03-01T19:23:20;6.00;5.00;3.00
65360;PMS5003;51958;55.018;73.536;2023-03-01T19:26:22;7.00;4.00;2.50
65360;PMS5003;51958;55.018;73.536;2023-03-01T19:29:23;6.00;4.00;1.00
65360;PMS5003;51958;55.018;73.536;2023-03-01T19:32:24;4.00;4.00;1.00
65360;PMS5003;51958;55.018;73.536;2023-03-01T19:35:35;3.00;3.00;0.50
65360;PMS5003;51958;55.018;73.536;2023-03-01T19:38:36;5.00;4.00;0.00
65360;PMS5003;51958;55.018;73.536;2023-03-01T20:06:10;8.00;6.00;2.00
65360;PMS5003;51958;55.018;73.536;2023-03-01T20:14:30;9.50;7.50;3.00
65360;PMS5003;51958;55.018;73.536;2023-03-01T20:17:36;10.00;8.00;3.00
65360;PMS5003;51958;55.018;73.536;2023-03-01T20:20:37;11.00;9.00;3.00
65360;PMS5003;51958;55.018;73.536;2023-03-01T20:23:38;11.00;9.00;3.00
65360;PMS5003;51958;55.018;73.536;2023-03-01T20:26:41;11.00;6.00;3.00
65360;PMS5003;51958;55.018;73.536;2023-03-01T20:29:43;9.00;6.50;4.00
65360;PMS5003;51958;55.018;73.536;2023-03-01T20:32:51;11.00;9.00;3.00
65360;PMS5003;51958;55.018;73.536;2023-03-01T20:35:52;9.00;8.00;3.00
65360;PMS5003;51958;55.018;73.536;2023-03-01T20:38:57;11.00;7.00;3.00
65360;PMS5003;51958;55.018;73.536;2023-03-01T20:42:05;12.00;10.00;3.00
65360;PMS5003;51958;55.018;73.536;2023-03-01T20:45:07;10.00;10.00;4.00
65360;PMS5003;51958;55.018;73.536;2023-03-01T20:48:08;8.00;6.00;3.00
65360;PMS5003;51958;55.018;73.536;2023-03-01T20:51:10;6.00;6.00;3.00
65360;PMS5003;51958;55.018;73.536;2023-03-01T20:54:11;5.50;4.50;3.00
65360;PMS5003;51958;55.018;73.536;2023-03-01T20:57:12;6.00;6.00;3.00
65360;PMS5003;51958;55.018;73.536;2023-03-01T21:00:24;5.00;5.00;2.00
65360;PMS5003;51958;55.018;73.536;2023-03-01T21:03:25;6.00;5.00;3.00
65360;PMS5003;51958;55.018;73.536;2023-03-01T21:06:27;5.00;5.00;2.00
65360;PMS5003;51958;55.018;73.536;2023-03-01T21:09:28;6.00;6.00;2.00
65360;PMS5003;51958;55.018;73.536;2023-03-01T21:12:30;6.00;6.00;3.00
65360;PMS5003;51958;55.018;73.536;2023-03-01T21:15:31;5.00;5.00;3.00
65360;PMS5003;51958;55.018;73.536;2023-03-01T21:18:44;3.00;3.00;1.00
65360;PMS5003;51958;55.018;73.536;2023-03-01T21:21:46;6.00;5.00;3.00
65360;PMS5003;51958;55.018;73.536;2023-03-01T21:24:57;6.00;5.00;3.00
65360;PMS5003;51958;55.018;73.536;2023-03-01T21:28:04;4.00;4.00;2.00
65360;PMS5003;51958;55.018;73.536;2023-03-01T21:31:12;4.00;4.00;2.00
65360;PMS5003;51958;55.018;73.536;2023-03-01T21:34:13;2.00;1.00;0.00
65360;PMS5003;51958;55.018;73.536;2023-03-01T21:37:14;4.00;3.00;0.00
65360;PMS5003;51958;55.018;73.536;2023-03-01T21:40:16;3.00;3.00;0.00
65360;PMS5003;51958;55.018;73.536;2023-03-01T21:43:17;4.00;3.00;0.00
65360;PMS5003;51958;55.018;73.536;2023-03-01T21:46:20;3.00;3.00;0.00
65360;PMS5003;51958;55.018;73.536;2023-03-01T21:49:27;3.50;3.00;0.00
65360;PMS5003;51958;55.018;73.536;2023-03-01T21:52:28;2.00;2.00;0.00
65360;PMS5003;51958;55.018;73.536;2023-03-01T21:55:29;3.00;3.00;0.00
65360;PMS5003;51958;55.018;73.536;2023-03-01T21:58:30;3.00;3.00;0.00
65360;PMS5003;51958;55.018;73.536;2023-03-01T22:01:42;2.00;2.00;0.00
65360;PMS5003;51958;55.018;73.536;2023-03-01T22:04:44;2.00;1.50;0.00
65360;PMS5003;51958;55.018;73.536;2023-03-01T22:07:51;1.00;1.00;0.00
65360;PMS5003;51958;55.018;73.536;2023-03-01T22:11:03;0.00;0.00;0.00
65360;PMS5003;51958;55.018;73.536;2023-03-01T22:14:05;0.00;0.00;0.00
65360;PMS5003;51958;55.018;73.536;2023-03-01T22:17:06;0.00;0.00;0.00
65360;PMS5003;51958;55.018;73.536;2023-03-01T22:20:07;3.00;0.00;0.00
65360;PMS5003;51958;55.018;73.536;2023-03-01T22:23:13;1.00;0.00;0.00
65360;PMS5003;51958;55.018;73.536;2023-03-01T22:26:27;2.00;1.00;0.00
65360;PMS5003;51958;55.018;73.536;2023-03-01T22:29:38;1.00;1.00;0.00
65360;PMS5003;51958;55.018;73.536;2023-03-01T22:32:44;3.00;2.00;0.00
65360;PMS5003;51958;55.018;73.536;2023-03-01T22:35:46;2.00;2.00;0.00
65360;PMS5003;51958;55.018;73.536;2023-03-01T22:38:47;2.00;1.50;0.00
65360;PMS5003;51958;55.018;73.536;2023-03-01T22:41:48;2.00;2.00;0.00
65360;PMS5003;51958;55.018;73.536;2023-03-01T22:44:49;2.00;2.00;0.00
65360;PMS5003;51958;55.018;73.536;2023-03-01T22:48:00;1.00;0.00;0.00
65360;PMS5003;51958;55.018;73.536;2023-03-01T22:51:14;4.00;2.50;0.00
65360;PMS5003;51958;55.018;73.536;2023-03-01T22:54:20;5.00;4.00;1.00
65360;PMS5003;51958;55.018;73.536;2023-03-01T22:57:21;1.00;0.00;0.00
65360;PMS5003;51958;55.018;73.536;2023-03-01T23:00:22;3.00;3.00;0.00
65360;PMS5003;51958;55.018;73.536;2023-03-01T23:03:28;6.00;6.00;0.00
65360;PMS5003;51958;55.018;73.536;2023-03-01T23:06:39;6.00;4.00;3.00
65360;PMS5003;51958;55.018;73.536;2023-03-01T23:09:49;1.00;0.33;0.00
65360;PMS5003;51958;55.018;73.536;2023-03-01T23:12:55;0.67;0.67;0.00
65360;PMS5003;51958;55.018;73.536;2023-03-01T23:15:56;3.00;3.00;0.00
65360;PMS5003;51958;55.018;73.536;2023-03-01T23:19:08;1.67;1.67;0.00
65360;PMS5003;51958;55.018;73.536;2023-03-01T23:22:09;6.00;4.67;0.00
65360;PMS5003;51958;55.018;73.536;2023-03-01T23:25:20;11.33;7.67;0.00
65360;PMS5003;51958;55.018;73.536;2023-03-01T23:28:25;9.00;4.00;0.00
65360;PMS5003;51958;55.018;73.536;2023-03-01T23:31:27;3.00;2.00;0.00
65360;PMS5003;51958;55.018;73.536;2023-03-01T23:34:34;0.67;0.67;0.00
65360;PMS5003;51958;55.018;73.536;2023-03-01T23:37:36;0.00;0.00;0.00
65360;PMS5003;51958;55.018;73.536;2023-03-01T23:40:37;0.00;0.00;0.00
65360;PMS5003;51958;55.018;73.536;2023-03-01T23:43:50;0.00;0.00;0.00
65360;PMS5003;51958;55.018;73.536;2023-03-01T23:46:54;0.00;0.00;0.00
65360;PMS5003;51958;55.018;73.536;2023-03-01T23:49:55;0.00;0.00;0.00
65360;PMS5003;51958;55.018;73.536;2023-03-01T23:53:01;0.00;0.00;0.00
65360;PMS5003;51958;55.018;73.536;2023-03-01T23:56:02;0.00;0.00;0.00
65360;PMS5003;51958;55.018;73.536;2023-03-01T23:59:15;0.00;0.00;0.00
